Terminal Aerodrome Forecast
Issued by NWS

Home | Current Version | Previous Version | Graphics & Text | Print | Product List | Glossary On
Versions: 1 2 3 4 5 6 7 8 9 10 11 12 13 14 15 16 17 18 19 20 21
949
FTUS42 KMHX 172034 AAB
TAFPGV
TAF AMD
KPGV 172034Z 1721/1818 07005KT P6SM VCSH SCT025 BKN035
      TEMPO 1721/1722 5SM -SHRA BKN004
     FM172200 04008KT P6SM BKN050
     FM180500 03006KT 5SM BR OVC004
     FM181500 01007KT P6SM BKN015
      AMD LTD TO CLD VIS AND WIND=

USA.gov is the U.S. government's official web portal to all federal, state and local government web resources and services.